Palisade, Colorado
Current Conditions -  °F | °C
As of 2:53 PM on Friday 24 Oct 2014 (Local Time) from KGJT Reporting Station
Clear Clear  
Wind Chill: 73°   Ceiling: Unl
Heat Index: 73°   Visibility: 10mi
Dew Point: 34°   Wind: 6mph
Humidity: 24%   Direction: 310°NW
Pressure: 30.23"   Gusts: NA
Location:  39.11°N, 108.35°W
Report Text: KGJT 242053Z 31005KT 10SM CLR 23/01 A3023 RMK AO2 SLP192 T02280011 56022
Loading
Personal Weather Stations






























Interactive Weather Map
Tropical Storm Tracking
New forecast layout! Learn more

10-Day Weather Forecast

Advertisements
Track Severe Weather on mobile